Time;durP1;ratioP1;P1;durP2;ratioP2;P2;SDS_P1;SDS_P2;PMS_P1;PMS_P2;Temp;Humidity;BMP_temperature;BMP_pressure;BME280_temperature;BME280_humidity;BME280_pressure;Samples;Min_cycle;Max_cycle;Signal;HPM_P1;HPM_P2
2022/10/24 04:00:51;;;;;;;3.30;1.40;;;13.20;99.90;;;;;;6198631;22;20555;-68
2022/10/24 04:03:17;;;;;;;2.53;2.43;;;13.20;99.90;;;;;;6240348;23;20418;-69
2022/10/24 04:05:44;;;;;;;3.23;1.57;;;13.20;99.90;;;;;;6241527;23;20426;-68
2022/10/24 04:08:11;;;;;;;4.10;2.47;;;13.20;99.90;;;;;;6241718;23;20433;-69
2022/10/24 04:10:37;;;;;;;2.70;2.50;;;13.20;99.90;;;;;;6241091;22;20442;-70
2022/10/24 04:13:04;;;;;;;3.50;1.90;;;13.20;99.90;;;;;;6240177;23;20947;-68
2022/10/24 04:15:31;;;;;;;1.70;1.60;;;13.20;99.90;;;;;;6241522;22;20750;-69
2022/10/24 04:17:59;;;;;;;1.40;1.40;;;13.20;99.90;;;;;;6241857;23;20907;-67
2022/10/24 04:20:25;;;;;;;4.63;2.00;;;13.20;99.90;;;;;;6241529;23;20429;-68
2022/10/24 04:22:52;;;;;;;0.90;0.90;;;13.20;99.90;;;;;;6241825;23;20425;-68
2022/10/24 04:25:19;;;;;;;4.23;2.67;;;13.20;99.90;;;;;;6242204;22;20186;-69
2022/10/24 04:27:46;;;;;;;4.13;1.70;;;13.20;99.90;;;;;;6242091;23;20713;-69
2022/10/24 04:30:15;;;;;;;1.50;1.50;;;13.20;99.90;;;;;;6240983;23;20703;-68
2022/10/24 04:32:41;;;;;;;1.40;1.30;;;13.20;99.90;;;;;;6241143;23;20475;-68
2022/10/24 04:35:10;;;;;;;2.20;2.00;;;13.20;99.90;;;;;;6214853;22;20466;-69
2022/10/24 04:37:36;;;;;;;1.17;1.17;;;13.20;99.90;;;;;;6242151;23;20453;-68
2022/10/24 04:40:04;;;;;;;18.50;1.92;;;13.20;99.90;;;;;;6240963;23;20904;-68
2022/10/24 04:42:31;;;;;;;1.60;1.50;;;13.20;99.90;;;;;;6250599;23;20179;-67
2022/10/24 04:44:58;;;;;;;3.40;2.03;;;13.20;99.90;;;;;;6241802;23;20425;-69
2022/10/24 04:47:24;;;;;;;1.13;1.13;;;13.20;99.90;;;;;;6241448;22;20954;-68
2022/10/24 04:49:51;;;;;;;2.10;2.10;;;13.10;99.90;;;;;;6241148;23;20736;-68
2022/10/24 04:52:19;;;;;;;1.83;1.73;;;13.20;99.90;;;;;;6242155;23;20448;-69
2022/10/24 04:54:46;;;;;;;2.00;1.50;;;13.10;99.90;;;;;;6240650;23;20254;-69
2022/10/24 04:57:13;;;;;;;1.67;1.57;;;13.20;99.90;;;;;;6242478;22;20453;-68
2022/10/24 04:59:39;;;;;;;2.77;1.57;;;13.20;99.90;;;;;;6242643;23;20429;-68
2022/10/24 05:02:06;;;;;;;3.92;2.22;;;13.10;99.90;;;;;;6242566;23;20425;-68
2022/10/24 05:04:33;;;;;;;1.57;1.47;;;13.20;99.90;;;;;;6240740;23;20190;-69
2022/10/24 05:07:00;;;;;;;7.40;1.48;;;13.20;99.90;;;;;;6241393;22;20439;-69
2022/10/24 05:09:28;;;;;;;1.60;1.60;;;13.20;99.90;;;;;;6241395;23;20179;-69
2022/10/24 05:11:55;;;;;;;5.27;2.03;;;13.20;99.90;;;;;;6241857;23;20432;-68
2022/10/24 05:14:22;;;;;;;1.77;1.77;;;13.10;99.90;;;;;;6242278;23;20425;-68
2022/10/24 05:16:49;;;;;;;1.73;1.63;;;13.10;99.90;;;;;;6241569;22;20471;-69
2022/10/24 05:19:16;;;;;;;1.93;1.83;;;13.20;99.90;;;;;;6242287;23;20903;-69
2022/10/24 05:21:43;;;;;;;2.70;1.95;;;13.20;99.90;;;;;;6242570;23;20563;-69
2022/10/24 05:24:10;;;;;;;1.67;1.57;;;13.20;99.90;;;;;;6241204;23;20190;-69
2022/10/24 05:26:38;;;;;;;5.20;2.57;;;13.20;99.90;;;;;;6241318;22;20468;-69
2022/10/24 05:29:05;;;;;;;9.13;1.80;;;13.20;99.90;;;;;;6242760;23;20421;-69
2022/10/24 05:31:32;;;;;;;5.63;1.33;;;13.20;99.90;;;;;;6242440;23;20618;-70
2022/10/24 05:33:59;;;;;;;2.13;2.13;;;13.20;99.90;;;;;;6243371;23;20488;-69
2022/10/24 05:36:26;;;;;;;1.50;1.40;;;13.20;99.90;;;;;;6244710;22;20450;-70
2022/10/24 05:38:53;;;;;;;1.70;1.60;;;13.20;99.90;;;;;;6245314;23;20505;-69
2022/10/24 05:41:19;;;;;;;2.00;1.80;;;13.10;99.90;;;;;;6243739;23;20421;-69
2022/10/24 05:43:47;;;;;;;2.20;2.00;;;13.10;99.90;;;;;;6243807;23;20935;-69
2022/10/24 05:46:14;;;;;;;1.70;1.70;;;13.10;99.90;;;;;;6245572;22;20441;-69
2022/10/24 05:48:41;;;;;;;1.57;1.57;;;13.10;99.90;;;;;;6245932;23;20424;-70
2022/10/24 05:51:07;;;;;;;1.30;1.10;;;13.10;99.90;;;;;;6245592;23;20458;-69
2022/10/24 05:53:34;;;;;;;2.03;0.97;;;13.10;99.90;;;;;;6243583;23;20441;-69
2022/10/24 05:56:01;;;;;;;2.30;1.80;;;13.00;99.90;;;;;;6244333;22;20438;-69
2022/10/24 05:58:28;;;;;;;2.30;1.20;;;13.00;99.90;;;;;;6241667;23;20446;-69
2022/10/24 06:00:56;;;;;;;1.27;1.27;;;13.00;99.90;;;;;;6241238;23;20429;-68
2022/10/24 06:03:23;;;;;;;1.60;1.60;;;13.00;99.90;;;;;;6240932;23;20429;-68
2022/10/24 06:05:50;;;;;;;1.67;1.57;;;13.00;99.90;;;;;;6241436;22;20446;-70
2022/10/24 06:08:17;;;;;;;1.40;1.30;;;13.00;99.90;;;;;;6240816;23;20425;-68
2022/10/24 06:10:47;;;;;;;1.53;1.53;;;13.00;99.90;;;;;;6241129;23;20814;-69
2022/10/24 06:13:13;;;;;;;1.67;1.63;;;13.00;99.90;;;;;;6240172;23;20439;-68
2022/10/24 06:15:41;;;;;;;1.40;1.30;;;13.00;99.90;;;;;;6241328;22;20449;-71
2022/10/24 06:18:09;;;;;;;2.20;1.93;;;13.00;99.90;;;;;;6241992;23;20434;-68
2022/10/24 06:20:37;;;;;;;2.03;1.80;;;13.00;99.90;;;;;;6240761;23;20422;-70
2022/10/24 06:23:03;;;;;;;2.57;2.37;;;13.00;99.90;;;;;;6240873;23;20796;-70
2022/10/24 06:25:30;;;;;;;3.33;3.13;;;13.10;99.90;;;;;;6241048;22;20446;-70
2022/10/24 06:27:57;;;;;;;3.60;1.77;;;13.00;99.90;;;;;;6240990;23;20425;-68
2022/10/24 06:30:23;;;;;;;2.07;2.00;;;13.10;99.90;;;;;;6240990;23;20438;-70
2022/10/24 06:32:50;;;;;;;4.77;1.93;;;13.10;99.90;;;;;;6240960;23;20426;-69
2022/10/24 06:35:18;;;;;;;2.60;2.47;;;13.10;99.90;;;;;;6240834;22;20699;-69
2022/10/24 06:37:45;;;;;;;2.10;2.00;;;13.10;99.90;;;;;;6241470;23;20596;-69
2022/10/24 06:40:12;;;;;;;1.77;1.67;;;13.20;99.90;;;;;;6242948;23;20470;-69
2022/10/24 06:42:39;;;;;;;1.40;1.40;;;13.20;99.90;;;;;;6242639;23;20413;-69
2022/10/24 06:45:06;;;;;;;3.93;1.97;;;13.30;99.90;;;;;;6243027;22;20769;-69
2022/10/24 06:47:33;;;;;;;1.73;1.73;;;13.20;99.90;;;;;;6242825;23;20422;-70
2022/10/24 06:49:59;;;;;;;2.50;1.87;;;13.30;99.90;;;;;;6243195;23;20539;-69
2022/10/24 06:52:28;;;;;;;2.13;2.03;;;13.30;99.90;;;;;;6242808;23;20429;-70
2022/10/24 06:54:54;;;;;;;1.63;1.63;;;13.30;99.90;;;;;;6242060;23;20429;-69
2022/10/24 06:57:21;;;;;;;2.87;2.77;;;13.30;99.90;;;;;;6242645;22;20445;-68
2022/10/24 06:59:48;;;;;;;3.57;2.10;;;13.30;99.90;;;;;;6243254;23;20422;-68
2022/10/24 07:02:16;;;;;;;1.97;1.87;;;13.40;99.90;;;;;;6243271;23;20429;-70
2022/10/24 07:04:43;;;;;;;3.13;1.80;;;13.40;99.90;;;;;;6240913;23;20423;-69
2022/10/24 07:07:15;;;;;;;4.83;2.17;;;13.40;99.90;;;;;;6242461;22;20449;-69
2022/10/24 07:09:43;;;;;;;2.50;2.40;;;13.40;99.90;;;;;;6242594;23;20502;-69
2022/10/24 07:12:10;;;;;;;2.30;1.97;;;13.40;99.90;;;;;;6242314;23;20422;-69
2022/10/24 07:14:37;;;;;;;1.50;1.50;;;13.40;99.90;;;;;;6241707;23;20894;-68
2022/10/24 07:17:04;;;;;;;7.83;1.97;;;13.50;99.90;;;;;;6241900;22;20533;-69
2022/10/24 07:19:31;;;;;;;2.30;1.50;;;13.50;99.90;;;;;;6241871;23;20760;-68
2022/10/24 07:21:58;;;;;;;2.60;1.80;;;13.50;99.90;;;;;;6241197;23;20427;-69
2022/10/24 07:24:24;;;;;;;1.90;1.80;;;13.50;99.90;;;;;;6240247;23;20427;-69
2022/10/24 07:26:53;;;;;;;1.60;1.50;;;13.60;99.90;;;;;;6251851;22;20986;-70
2022/10/24 07:29:20;;;;;;;5.10;2.30;;;13.60;99.90;;;;;;6240940;23;20423;-70
2022/10/24 07:31:47;;;;;;;1.83;1.83;;;13.70;99.90;;;;;;6241720;23;21076;-69
2022/10/24 07:34:14;;;;;;;6.20;2.07;;;13.70;99.90;;;;;;6242132;23;20955;-69
2022/10/24 07:36:40;;;;;;;2.00;1.90;;;13.80;99.90;;;;;;6243471;22;20912;-68
2022/10/24 07:39:07;;;;;;;1.90;1.70;;;13.80;99.90;;;;;;6241196;23;20453;-70
2022/10/24 07:41:39;;;;;;;2.83;2.50;;;13.90;99.90;;;;;;6242832;23;20420;-68
2022/10/24 07:44:07;;;;;;;3.70;2.70;;;13.90;99.90;;;;;;6242962;23;20416;-69
2022/10/24 07:46:35;;;;;;;4.77;2.20;;;14.00;99.90;;;;;;6242940;22;20520;-68
2022/10/24 07:49:01;;;;;;;2.23;2.07;;;14.00;99.90;;;;;;6243127;23;20410;-68
2022/10/24 07:51:28;;;;;;;1.90;1.80;;;14.10;99.90;;;;;;6241718;23;20534;-69
2022/10/24 07:53:56;;;;;;;4.43;2.50;;;14.20;99.90;;;;;;6241940;23;20506;-67
2022/10/24 07:56:22;;;;;;;2.10;1.87;;;14.30;99.90;;;;;;6242540;22;20498;-68
2022/10/24 07:58:49;;;;;;;1.97;1.90;;;14.40;99.90;;;;;;6243434;23;20442;-68
2022/10/24 08:01:20;;;;;;;5.03;2.80;;;14.40;99.90;;;;;;6243489;23;20423;-69
2022/10/24 08:03:47;;;;;;;9.53;2.33;;;14.40;99.90;;;;;;6241544;23;20411;-69
2022/10/24 08:06:16;;;;;;;1.80;1.80;;;14.50;99.90;;;;;;6241163;22;20446;-69
2022/10/24 08:08:43;;;;;;;3.30;1.80;;;14.50;99.90;;;;;;6242230;23;20488;-69
2022/10/24 08:11:11;;;;;;;3.33;1.63;;;14.60;99.90;;;;;;6241577;23;20426;-68
2022/10/24 08:13:39;;;;;;;2.73;1.20;;;14.60;99.90;;;;;;6240205;23;20422;-68
2022/10/24 08:16:07;;;;;;;3.30;2.10;;;14.70;99.90;;;;;;6241793;22;20451;-68
2022/10/24 08:18:35;;;;;;;1.93;1.80;;;14.80;99.90;;;;;;6241730;23;20453;-68
2022/10/24 08:21:04;;;;;;;2.53;2.43;;;14.80;99.90;;;;;;6241078;23;20484;-68
2022/10/24 08:23:32;;;;;;;9.23;2.70;;;14.90;99.90;;;;;;6240675;23;20435;-68
2022/10/24 08:26:00;;;;;;;2.10;1.93;;;15.00;99.90;;;;;;6242463;22;20446;-69
2022/10/24 08:28:26;;;;;;;2.10;1.90;;;15.00;99.90;;;;;;6251445;23;20426;-68
2022/10/24 08:30:57;;;;;;;6.87;1.97;;;15.10;99.90;;;;;;6241856;23;20726;-69
2022/10/24 08:33:24;;;;;;;1.80;1.70;;;15.10;99.90;;;;;;6241282;23;20407;-68
2022/10/24 08:35:54;;;;;;;1.80;1.70;;;15.20;99.90;;;;;;6242030;22;20442;-68
2022/10/24 08:38:20;;;;;;;2.63;1.90;;;15.20;99.90;;;;;;6241362;23;20432;-68
2022/10/24 08:40:48;;;;;;;1.63;1.53;;;15.30;99.90;;;;;;6242033;23;20817;-68
2022/10/24 08:43:17;;;;;;;3.67;2.40;;;15.30;99.90;;;;;;6240632;23;20427;-68
2022/10/24 08:45:58;;;;;;;2.23;2.03;;;15.40;99.90;;;;;;6241767;22;20440;-68
2022/10/24 08:48:32;;;;;;;2.37;2.27;;;15.50;99.90;;;;;;6239381;23;20403;-68
2022/10/24 08:51:27;;;;;;;2.03;1.93;;;15.60;99.90;;;;;;6241969;23;20732;-69
2022/10/24 08:53:57;;;;;;;1.67;1.57;;;15.70;99.90;;;;;;6239754;23;20416;-68
2022/10/24 08:56:27;;;;;;;1.63;1.53;;;15.80;99.90;;;;;;6241392;22;20930;-69
2022/10/24 08:58:55;;;;;;;5.90;2.17;;;15.80;99.90;;;;;;6241420;23;20435;-69
2022/10/24 09:01:29;;;;;;;2.07;2.03;;;15.80;99.90;;;;;;6241271;23;20909;-69
2022/10/24 09:03:59;;;;;;;2.30;1.83;;;15.90;99.90;;;;;;6240293;23;20414;-68
2022/10/24 09:06:31;;;;;;;1.97;1.87;;;15.90;99.90;;;;;;6241932;22;20440;-70
2022/10/24 09:09:01;;;;;;;3.10;2.30;;;16.00;99.90;;;;;;6241435;23;20407;-69
2022/10/24 09:11:37;;;;;;;3.50;1.93;;;16.00;99.90;;;;;;6241182;23;20426;-68
2022/10/24 09:14:11;;;;;;;1.80;1.80;;;16.10;99.90;;;;;;6241714;23;20486;-68
2022/10/24 09:16:40;;;;;;;1.70;1.70;;;16.10;99.90;;;;;;6243528;22;20463;-69
2022/10/24 09:19:12;;;;;;;2.00;1.63;;;16.30;99.90;;;;;;6244299;23;20444;-69
2022/10/24 09:21:43;;;;;;;6.50;1.90;;;16.40;99.90;;;;;;6255305;23;20413;-69
2022/10/24 09:24:24;;;;;;;4.37;1.30;;;16.50;99.90;;;;;;6239596;23;20413;-69
2022/10/24 09:26:50;;;;;;;1.70;1.70;;;16.60;99.90;;;;;;6240293;22;20444;-69
2022/10/24 09:29:17;;;;;;;1.90;1.67;;;16.70;99.90;;;;;;6240128;23;20423;-69
2022/10/24 09:31:48;;;;;;;1.80;1.73;;;16.80;99.90;;;;;;6239328;23;20423;-69
2022/10/24 09:34:15;;;;;;;1.63;1.50;;;16.80;99.90;;;;;;6240751;23;20804;-69
2022/10/24 09:36:45;;;;;;;7.10;1.40;;;16.90;99.90;;;;;;6241004;22;20746;-69
2022/10/24 09:39:28;;;;;;;2.70;1.73;;;17.00;99.90;;;;;;6241920;23;20445;-69
2022/10/24 09:41:56;;;;;;;1.57;1.53;;;17.10;99.90;;;;;;6241587;23;20745;-69
2022/10/24 09:44:33;;;;;;;2.50;1.70;;;17.30;99.90;;;;;;6240915;23;20421;-69
2022/10/24 09:47:01;;;;;;;1.73;1.63;;;17.30;99.90;;;;;;6241565;22;20459;-68
2022/10/24 09:49:34;;;;;;;1.40;1.40;;;17.40;99.90;;;;;;6242348;23;20417;-69
2022/10/24 09:52:06;;;;;;;1.27;1.17;;;17.50;99.90;;;;;;6241536;23;20432;-69
2022/10/24 09:54:34;;;;;;;1.17;1.17;;;17.60;99.90;;;;;;6240570;23;20421;-68
2022/10/24 09:57:06;;;;;;;1.10;0.97;;;17.60;99.90;;;;;;6241365;22;20830;-68
2022/10/24 09:59:37;;;;;;;0.70;0.70;;;17.70;99.90;;;;;;6241543;23;20507;-69
2022/10/24 10:02:24;;;;;;;1.30;1.30;;;17.90;99.90;;;;;;6242377;23;20410;-69
2022/10/24 10:05:19;;;;;;;1.00;1.00;;;18.00;99.90;;;;;;6242326;23;20403;-71
2022/10/24 10:07:49;;;;;;;1.17;0.80;;;18.10;99.90;;;;;;6242777;23;20402;-69
2022/10/24 10:10:31;;;;;;;0.70;0.50;;;18.20;99.90;;;;;;6241612;23;20757;-69
2022/10/24 10:13:02;;;;;;;1.60;0.80;;;18.30;99.90;;;;;;6239737;23;20456;-69
2022/10/24 10:15:34;;;;;;;0.63;0.63;;;18.30;99.90;;;;;;6243493;22;20524;-69
2022/10/24 10:20:34;;;;;;;1.33;0.50;;;18.40;99.90;;;;;;6272140;22;20416;-68
2022/10/24 10:23:25;;;;;;;0.60;0.60;;;18.40;99.90;;;;;;6272660;22;20408;-69
2022/10/24 10:26:19;;;;;;;1.67;1.00;;;18.40;99.90;;;;;;6274344;22;20401;-68
2022/10/24 10:28:56;;;;;;;0.60;0.60;;;18.40;99.90;;;;;;6262938;22;20741;-68
2022/10/24 10:31:26;;;;;;;0.73;0.60;;;18.40;99.90;;;;;;6244129;23;20452;-68
2022/10/24 10:34:14;;;;;;;1.17;0.50;;;18.50;99.90;;;;;;6242665;23;20414;-69
2022/10/24 10:36:53;;;;;;;2.20;0.80;;;18.50;99.90;;;;;;6227890;23;20437;-68
2022/10/24 10:39:34;;;;;;;1.60;0.67;;;18.50;99.90;;;;;;6243096;22;20461;-68
2022/10/24 10:42:08;;;;;;;0.73;0.73;;;18.50;99.90;;;;;;6242683;23;20429;-67
2022/10/24 10:44:55;;;;;;;2.67;0.60;;;18.50;99.90;;;;;;6242423;23;20924;-66
2022/10/24 10:47:34;;;;;;;0.87;0.87;;;18.50;99.90;;;;;;6243604;23;20405;-68
2022/10/24 10:50:02;;;;;;;0.63;0.63;;;18.50;99.90;;;;;;6243659;22;20471;-66
2022/10/24 10:52:31;;;;;;;0.50;0.47;;;18.60;99.90;;;;;;6243103;23;20423;-68
2022/10/24 10:55:18;;;;;;;2.10;0.80;;;18.50;99.90;;;;;;6242908;23;20750;-66
2022/10/24 10:57:52;;;;;;;5.10;1.23;;;18.50;99.90;;;;;;6243016;23;20407;-67
2022/10/24 11:00:22;;;;;;;0.70;0.70;;;18.50;99.90;;;;;;6243003;22;20970;-66
2022/10/24 11:03:02;;;;;;;0.53;0.53;;;18.50;99.90;;;;;;6242549;23;20426;-67
2022/10/24 11:05:40;;;;;;;4.93;0.77;;;18.60;99.90;;;;;;6243587;23;20417;-66
2022/10/24 11:08:20;;;;;;;1.43;0.37;;;18.60;99.90;;;;;;6243188;22;20411;-68
2022/10/24 11:10:52;;;;;;;0.60;0.60;;;18.70;99.90;;;;;;6243274;23;20752;-68
2022/10/24 11:13:23;;;;;;;0.50;0.50;;;18.70;99.90;;;;;;6241978;23;20406;-67
2022/10/24 11:15:55;;;;;;;3.30;0.47;;;18.70;99.90;;;;;;6243339;23;20423;-66
2022/10/24 11:18:25;;;;;;;0.63;0.60;;;18.80;99.90;;;;;;6242293;22;20455;-67
2022/10/24 11:20:57;;;;;;;1.10;0.67;;;18.90;99.90;;;;;;6243288;23;20874;-66
2022/10/24 11:23:29;;;;;;;0.97;0.60;;;18.80;99.90;;;;;;6239836;23;20408;-68
2022/10/24 11:26:02;;;;;;;0.67;0.40;;;18.80;99.90;;;;;;6242913;23;20799;-68
2022/10/24 11:28:34;;;;;;;0.73;0.73;;;18.80;99.90;;;;;;6242492;22;20494;-67
2022/10/24 11:31:06;;;;;;;0.70;0.70;;;18.70;99.90;;;;;;6242991;23;20414;-69
2022/10/24 11:33:39;;;;;;;0.60;0.60;;;18.70;99.90;;;;;;6241966;23;20410;-69
2022/10/24 11:36:12;;;;;;;0.30;0.30;;;18.70;99.90;;;;;;6242768;23;20415;-69
2022/10/24 11:38:45;;;;;;;0.30;0.30;;;18.70;99.90;;;;;;6241222;22;20450;-71
2022/10/24 11:41:26;;;;;;;2.53;0.70;;;18.80;99.90;;;;;;6242479;23;20408;-66
2022/10/24 11:43:56;;;;;;;2.27;0.53;;;18.70;99.90;;;;;;6252006;23;20401;-67
2022/10/24 11:46:26;;;;;;;1.13;1.13;;;18.80;99.90;;;;;;6242968;23;20423;-67
2022/10/24 11:48:57;;;;;;;0.63;0.47;;;18.70;99.90;;;;;;6242954;22;20439;-66
2022/10/24 11:51:29;;;;;;;2.00;0.40;;;18.70;99.90;;;;;;6242205;23;20415;-68
2022/10/24 11:53:59;;;;;;;2.20;0.30;;;18.70;99.90;;;;;;6241378;23;20423;-67
2022/10/24 11:56:32;;;;;;;2.30;1.53;;;18.60;99.90;;;;;;6241818;23;20459;-68
2022/10/24 11:59:01;;;;;;;0.50;0.50;;;18.60;99.90;;;;;;6242198;22;20839;-68
2022/10/24 12:01:47;;;;;;;0.53;0.33;;;18.60;99.90;;;;;;6242810;23;20423;-69
2022/10/24 12:04:50;;;;;;;0.87;0.50;;;18.60;99.90;;;;;;6241620;23;20407;-71
2022/10/24 12:07:42;;;;;;;1.03;0.70;;;18.60;99.90;;;;;;6242875;23;20409;-67
2022/10/24 12:10:29;;;;;;;0.60;0.60;;;18.70;99.90;;;;;;6243207;22;20440;-66
2022/10/24 12:13:15;;;;;;;0.50;0.50;;;18.70;99.90;;;;;;6241217;23;20478;-68
2022/10/24 12:15:50;;;;;;;1.50;0.67;;;18.70;99.90;;;;;;6241745;23;20461;-67
2022/10/24 12:18:29;;;;;;;0.30;0.30;;;18.70;99.90;;;;;;6241187;22;20440;-68
2022/10/24 12:21:00;;;;;;;1.50;0.50;;;18.90;99.90;;;;;;6241843;23;20420;-66
2022/10/24 12:23:28;;;;;;;4.93;0.87;;;18.90;99.90;;;;;;6240989;23;20874;-67
2022/10/24 12:26:17;;;;;;;0.87;0.87;;;18.90;99.90;;;;;;6242031;23;20423;-65
2022/10/24 12:28:54;;;;;;;0.53;0.53;;;18.80;99.90;;;;;;6241687;22;20447;-67
2022/10/24 12:31:26;;;;;;;0.67;0.40;;;18.80;99.90;;;;;;6242022;23;20901;-68
2022/10/24 12:34:26;;;;;;;0.60;0.60;;;18.80;99.90;;;;;;6240741;23;20418;-70
2022/10/24 12:37:10;;;;;;;1.63;1.23;;;18.80;99.90;;;;;;6241399;23;20502;-67
2022/10/24 12:39:39;;;;;;;0.40;0.37;;;18.90;99.90;;;;;;6242125;22;20529;-66
2022/10/24 12:42:13;;;;;;;0.47;0.47;;;18.90;99.90;;;;;;6242095;23;20440;-67
2022/10/24 12:44:44;;;;;;;0.77;0.77;;;18.80;99.90;;;;;;6241654;23;20507;-67
2022/10/24 12:47:35;;;;;;;0.67;0.67;;;18.80;99.90;;;;;;6242246;23;20792;-71
2022/10/24 12:50:39;;;;;;;0.53;0.53;;;18.80;99.90;;;;;;6242072;22;20491;-67
2022/10/24 12:53:30;;;;;;;0.87;0.87;;;18.80;99.90;;;;;;6241728;23;20422;-66
2022/10/24 12:56:18;;;;;;;0.50;0.50;;;18.90;99.90;;;;;;6242501;23;20507;-67
2022/10/24 12:59:02;;;;;;;0.50;0.50;;;19.00;99.90;;;;;;6241847;22;20447;-68
2022/10/24 13:01:33;;;;;;;0.43;0.43;;;19.00;99.90;;;;;;6241668;23;20936;-67
2022/10/24 13:04:40;;;;;;;0.77;0.60;;;19.00;99.90;;;;;;6241333;23;20405;-67
2022/10/24 13:07:30;;;;;;;7.53;0.63;;;18.80;99.90;;;;;;6242465;23;20407;-69
2022/10/24 13:10:09;;;;;;;2.87;0.50;;;18.70;99.90;;;;;;6242041;22;20514;-67
2022/10/24 13:12:50;;;;;;;1.50;0.80;;;18.70;99.90;;;;;;6241143;23;20414;-67
2022/10/24 13:15:36;;;;;;;3.70;0.40;;;18.70;99.90;;;;;;6241903;23;20408;-66
2022/10/24 13:18:17;;;;;;;0.80;0.80;;;18.60;99.90;;;;;;6242294;22;20736;-67
2022/10/24 13:20:48;;;;;;;0.40;0.40;;;18.70;99.90;;;;;;6242353;23;20494;-68
2022/10/24 13:23:17;;;;;;;0.60;0.50;;;18.70;99.90;;;;;;6241897;23;20490;-67
2022/10/24 13:25:46;;;;;;;0.60;0.60;;;18.60;99.90;;;;;;6241296;23;20422;-66
2022/10/24 13:28:37;;;;;;;1.03;0.50;;;18.60;99.90;;;;;;6241277;22;20429;-67
2022/10/24 13:31:39;;;;;;;1.10;0.40;;;18.60;99.90;;;;;;6241548;23;20518;-68
2022/10/24 13:34:23;;;;;;;0.40;0.40;;;18.50;99.90;;;;;;6241054;23;20702;-68
2022/10/24 13:37:04;;;;;;;2.50;0.47;;;18.50;99.90;;;;;;6242165;23;20537;-68
2022/10/24 13:39:35;;;;;;;0.67;0.67;;;18.40;99.90;;;;;;6241446;22;20450;-67
2022/10/24 13:42:04;;;;;;;0.57;0.40;;;18.40;99.90;;;;;;6242000;23;20411;-68
2022/10/24 13:44:41;;;;;;;0.40;0.40;;;18.30;99.90;;;;;;6240779;23;20947;-68
2022/10/24 13:47:16;;;;;;;0.60;0.60;;;18.30;99.90;;;;;;6241717;23;20402;-70
2022/10/24 13:49:51;;;;;;;2.00;0.63;;;18.30;99.90;;;;;;6243434;22;20444;-69
2022/10/24 13:52:22;;;;;;;0.23;0.23;;;18.20;99.90;;;;;;6243972;23;20426;-69
2022/10/24 13:54:53;;;;;;;9.13;0.50;;;18.10;99.90;;;;;;6241766;23;20873;-67
2022/10/24 13:57:29;;;;;;;0.50;0.50;;;18.10;99.90;;;;;;6243982;23;20719;-70
2022/10/24 13:59:58;;;;;;;0.40;0.40;;;18.10;99.90;;;;;;6243211;22;20450;-68
2022/10/24 14:02:28;;;;;;;1.47;0.67;;;18.00;99.90;;;;;;6243647;23;20427;-70
2022/10/24 14:04:57;;;;;;;3.50;0.30;;;18.00;99.90;;;;;;6243165;23;20704;-68
2022/10/24 14:07:27;;;;;;;0.60;0.60;;;18.00;99.90;;;;;;6244293;23;20422;-67
2022/10/24 14:09:58;;;;;;;0.90;0.67;;;18.00;99.90;;;;;;6244008;22;20457;-68
2022/10/24 14:12:27;;;;;;;5.50;0.87;;;18.10;99.90;;;;;;6243369;23;20405;-69
2022/10/24 14:14:57;;;;;;;0.70;0.70;;;18.10;99.90;;;;;;6243357;23;20423;-68
2022/10/24 14:17:25;;;;;;;0.73;0.50;;;18.00;99.90;;;;;;6243203;23;20505;-67
2022/10/24 14:19:56;;;;;;;0.57;0.57;;;18.00;99.90;;;;;;6242976;22;20785;-66
2022/10/24 14:22:26;;;;;;;0.40;0.40;;;18.00;99.90;;;;;;6243838;23;20404;-67
2022/10/24 14:24:53;;;;;;;0.57;0.57;;;17.90;99.90;;;;;;6242455;23;20427;-68
2022/10/24 14:27:21;;;;;;;0.93;0.50;;;17.80;99.90;;;;;;6242747;23;20425;-67
2022/10/24 14:29:53;;;;;;;1.27;0.97;;;17.80;99.90;;;;;;6242825;22;20445;-66
2022/10/24 14:32:20;;;;;;;0.67;0.63;;;17.80;99.90;;;;;;6243708;23;20734;-67
2022/10/24 14:34:48;;;;;;;0.40;0.40;;;17.70;99.90;;;;;;6242737;23;20443;-66
2022/10/24 14:37:27;;;;;;;1.43;0.80;;;17.60;99.90;;;;;;6242839;23;20453;-65
2022/10/24 14:39:54;;;;;;;0.40;0.40;;;17.60;99.90;;;;;;6243259;22;20548;-68
2022/10/24 14:42:22;;;;;;;0.63;0.47;;;17.50;99.90;;;;;;6242384;23;20504;-65
2022/10/24 14:44:50;;;;;;;0.60;0.60;;;17.40;99.90;;;;;;6242272;23;20899;-67
2022/10/24 14:47:27;;;;;;;1.60;0.70;;;17.30;99.90;;;;;;6243701;23;20420;-66
2022/10/24 14:49:54;;;;;;;0.47;0.47;;;17.20;99.90;;;;;;6242744;22;20448;-67
2022/10/24 14:52:25;;;;;;;1.23;0.67;;;17.10;99.90;;;;;;6243263;23;20755;-66
2022/10/24 14:54:57;;;;;;;0.73;0.50;;;17.00;99.90;;;;;;6241357;23;20788;-68
2022/10/24 14:57:25;;;;;;;2.37;0.70;;;17.00;99.90;;;;;;6242737;23;20495;-69
2022/10/24 14:59:54;;;;;;;0.63;0.50;;;16.90;99.90;;;;;;6241053;22;20458;-66
2022/10/24 15:02:24;;;;;;;0.40;0.40;;;16.80;99.90;;;;;;6243513;23;20422;-65
2022/10/24 15:04:53;;;;;;;0.60;0.60;;;16.80;99.90;;;;;;6243074;23;20879;-66
2022/10/24 15:07:36;;;;;;;1.73;0.90;;;16.80;99.90;;;;;;6242480;23;20423;-66
2022/10/24 15:10:23;;;;;;;2.50;0.60;;;16.80;99.90;;;;;;6242634;22;20436;-66
2022/10/24 15:12:58;;;;;;;0.50;0.50;;;16.80;99.90;;;;;;6241045;23;20524;-69
2022/10/24 15:15:27;;;;;;;0.50;0.50;;;16.80;99.90;;;;;;6243269;23;20407;-68
2022/10/24 15:17:58;;;;;;;0.73;0.73;;;16.80;99.90;;;;;;6243705;23;20454;-66
2022/10/24 15:20:28;;;;;;;2.63;0.70;;;16.70;99.90;;;;;;6243256;23;20448;-68
2022/10/24 15:22:59;;;;;;;2.30;2.20;;;16.70;99.90;;;;;;6242411;23;20425;-67
2022/10/24 15:25:31;;;;;;;0.50;0.50;;;16.70;99.90;;;;;;6242895;23;20428;-66
2022/10/24 15:27:59;;;;;;;0.53;0.53;;;16.70;99.90;;;;;;6242334;23;20480;-67
2022/10/24 15:30:28;;;;;;;0.87;0.60;;;16.70;99.90;;;;;;6242334;23;20420;-67
2022/10/24 15:32:56;;;;;;;0.50;0.50;;;16.60;99.90;;;;;;6242409;23;20804;-70
2022/10/24 15:35:23;;;;;;;3.43;0.50;;;16.60;99.90;;;;;;6243175;23;20494;-68
2022/10/24 15:37:56;;;;;;;1.07;1.07;;;16.60;99.90;;;;;;6242676;23;20429;-65
2022/10/24 15:40:25;;;;;;;1.00;0.57;;;16.60;99.90;;;;;;6241546;22;20744;-69
2022/10/24 15:42:52;;;;;;;1.03;0.70;;;16.60;99.90;;;;;;6241484;23;20450;-67
2022/10/24 15:45:19;;;;;;;0.50;0.50;;;16.50;99.90;;;;;;6241626;23;20420;-68
2022/10/24 15:47:46;;;;;;;1.43;0.80;;;16.50;99.90;;;;;;6242137;23;20427;-66
2022/10/24 15:50:15;;;;;;;0.90;0.90;;;16.40;99.90;;;;;;6242435;22;20441;-67
2022/10/24 15:52:42;;;;;;;1.60;1.10;;;16.50;99.90;;;;;;6242615;23;20474;-67
2022/10/24 15:55:17;;;;;;;0.80;0.73;;;16.50;99.90;;;;;;6243182;23;20424;-65
2022/10/24 15:57:44;;;;;;;0.90;0.90;;;16.50;99.90;;;;;;6242607;23;20415;-68
2022/10/24 16:00:12;;;;;;;0.50;0.50;;;16.50;99.90;;;;;;6242576;22;20459;-66
2022/10/24 16:02:41;;;;;;;0.70;0.70;;;16.50;99.90;;;;;;6242123;23;20913;-68
2022/10/24 16:05:14;;;;;;;2.40;0.80;;;16.50;99.90;;;;;;6240552;23;20423;-72
2022/10/24 16:07:41;;;;;;;0.80;0.80;;;16.60;99.90;;;;;;6242837;23;20407;-68
2022/10/24 16:10:09;;;;;;;0.63;0.63;;;16.60;99.90;;;;;;6243109;22;20438;-69
2022/10/24 16:12:37;;;;;;;1.57;0.80;;;16.60;99.90;;;;;;6241539;23;20429;-67
2022/10/24 16:15:05;;;;;;;1.03;0.80;;;16.60;99.90;;;;;;6242107;23;20425;-67
2022/10/24 16:17:32;;;;;;;0.33;0.33;;;16.60;99.90;;;;;;6241980;23;20427;-69
2022/10/24 16:19:58;;;;;;;0.50;0.50;;;16.60;99.90;;;;;;6241254;22;20471;-68
2022/10/24 16:22:25;;;;;;;1.33;0.63;;;16.60;99.90;;;;;;6242010;23;20887;-68
2022/10/24 16:24:52;;;;;;;1.47;0.80;;;16.50;99.90;;;;;;6241502;23;20425;-68
2022/10/24 16:27:18;;;;;;;0.43;0.43;;;16.50;99.90;;;;;;6242062;23;20426;-68
2022/10/24 16:29:46;;;;;;;2.63;0.70;;;16.50;99.90;;;;;;6242284;22;20506;-67
2022/10/24 16:32:13;;;;;;;0.50;0.50;;;16.50;99.90;;;;;;6242414;23;20421;-68
2022/10/24 16:34:39;;;;;;;1.27;0.70;;;16.40;99.90;;;;;;6240801;23;20431;-67
2022/10/24 16:37:06;;;;;;;2.60;0.40;;;16.40;99.90;;;;;;6240528;23;20435;-66
2022/10/24 16:39:33;;;;;;;0.60;0.60;;;16.40;99.90;;;;;;6241352;22;20444;-66
2022/10/24 16:42:03;;;;;;;0.60;0.60;;;16.40;99.90;;;;;;6241286;23;20416;-67
2022/10/24 16:44:31;;;;;;;3.70;1.53;;;16.40;99.90;;;;;;6239660;23;20517;-66
2022/10/24 16:46:59;;;;;;;0.67;0.67;;;16.30;99.90;;;;;;6241466;23;20510;-66
2022/10/24 16:49:26;;;;;;;0.77;0.77;;;16.20;99.90;;;;;;6241671;22;20441;-71
2022/10/24 16:51:53;;;;;;;1.57;0.80;;;16.10;99.90;;;;;;6241384;23;20426;-72
2022/10/24 16:54:21;;;;;;;10.07;1.07;;;16.00;99.90;;;;;;6240331;23;20763;-67
2022/10/24 16:56:48;;;;;;;1.13;1.13;;;16.00;99.90;;;;;;6240250;23;20421;-66
2022/10/24 16:59:15;;;;;;;1.93;0.63;;;15.90;99.90;;;;;;6239929;22;20444;-70
2022/10/24 17:01:42;;;;;;;1.53;0.97;;;15.90;99.90;;;;;;6240668;23;20456;-66
2022/10/24 17:04:10;;;;;;;3.40;1.00;;;15.80;99.90;;;;;;6240576;23;20427;-70
2022/10/24 17:06:37;;;;;;;0.67;0.67;;;15.60;99.90;;;;;;6240766;23;20429;-69
2022/10/24 17:09:04;;;;;;;0.87;0.87;;;15.50;99.90;;;;;;6238931;22;20442;-68
2022/10/24 17:11:30;;;;;;;1.73;0.90;;;15.30;99.90;;;;;;6240716;23;20411;-64